• Join FlightAware (Why Join?)
  • Login
  • US Flag 
01:26AM EDT


 

Airport Tracker/Info


-or-


 

Live Flight TrackerFlight Track Log ✈ N234GF ✈ 23-Aug-2013 ✈ KCRW - KPLN

Flight Track Log - Related Links

Times and Time Zones

All times are in EDT time to prevent confusion due to time zone crossing. See the N234GF flight status page for this flight to view local times or setup timezone preferences in your user account.

Time Position Orientation Groundspeed Altitude Reporting Facility
EDT Latitude Longitude Course Direction KTS MPH feet Rate Location/Type
03:13PM 38.5081 -81.4414 346° North 252 290 8,800  Level Indianapolis Center
03:14PM 38.5958 -81.4694 346° North 276 318 10,100 1,920 Climbing Indianapolis Center
03:15PM 38.6639 -81.5042 338° Northwest 279 321 12,800 2,280 Climbing Indianapolis Center
03:16PM 38.7456 -81.5375 342° North 299 344 14,900 2,220 Climbing Indianapolis Center
03:18PM 38.8492 -81.5819 342° North 331 381 17,400 2,100 Climbing Indianapolis Center
03:19PM 38.9400 -81.6206 342° North 341 392 19,300 1,920 Climbing Indianapolis Center
03:20PM 39.0292 -81.6592 341° North 339 390 21,400 1,980 Climbing Indianapolis Center
03:21PM 39.1192 -81.6972 342° North 341 392 23,500 1,860 Climbing Indianapolis Center
03:22PM 39.2078 -81.7356 341° North 336 387 25,300 1,620 Climbing Indianapolis Center
03:23PM 39.2986 -81.7742 342° North 342 394 26,900 1,680 Climbing Indianapolis Center
03:24PM 39.4056 -81.8219 341° North 341 392 28,800 1,560 Climbing Indianapolis Center
03:25PM 39.4967 -81.8581 343° North 341 392 30,200 1,020 Climbing Indianapolis Center
03:26PM 39.5964 -81.8667 356° North 354 407 31,000 780 Climbing Indianapolis Center
03:27PM 39.6989 -81.8822 353° North 371 427 31,900 900 Climbing Indianapolis Center
03:28PM 39.7939 -81.9047 350° North 370 426 32,900 1,020 Climbing Indianapolis Center
03:29PM 39.9164 -81.9300 351° North 371 427 34,100 1,020 Climbing Indianapolis Center
03:30PM 40.0192 -81.9478 352° North 372 428 35,100 900 Climbing Indianapolis Center
03:31PM 40.1147 -81.9817 345° North 359 413 36,000 420 Climbing Indianapolis Center
03:32PM 40.2122 -82.0272 340° North 369 425 36,000  Level Indianapolis Center
03:33PM 40.3267 -82.0822 340° North 389 448 36,000  Level Indianapolis Center
03:34PM 40.4322 -82.1336 340° North 398 458 36,000  Level Indianapolis Center
03:35PM 40.5394 -82.1831 341° North 403 464 36,000  Level Indianapolis Center
03:36PM 40.6486 -82.2356 340° North 409 471 36,000  Level Indianapolis Center
03:37PM 40.7558 -82.2881 340° North 407 468 36,000  Level Indianapolis Center
03:38PM 40.8650 -82.3403 340° North 410 472 36,000  Level Indianapolis Center
03:39PM 40.9728 -82.3903 341° North 408 470 36,000  Level Indianapolis Center
03:40PM 41.0983 -82.4567 338° Northwest 406 467 36,000  Level Cleveland Center
03:41PM 41.2039 -82.5039 341° North 406 467 36,000  Level Cleveland Center
03:42PM 41.3072 -82.5567 339° North 401 461 36,000  Level Cleveland Center
03:43PM 41.3981 -82.6039 339° North 401 461 36,000  Level Cleveland Center
03:44PM 41.4994 -82.6514 341° North 388 447 36,000  Level Cleveland Center
03:45PM 41.6006 -82.6992 341° North 388 447 36,000  Level Cleveland Center
03:46PM 41.7081 -82.7528 340° North 383 441 36,000  Level Cleveland Center
03:47PM 41.8092 -82.8006 341° North 383 441 36,000  Level Cleveland Center
03:48PM 41.9083 -82.8486 340° North 383 441 36,000  Level Cleveland Center
03:49PM 42.0075 -82.8997 339° North 383 441 36,000  Level Cleveland Center
03:50PM 42.1086 -82.9511 339° North 383 441 36,000  Level Cleveland Center
03:51PM 42.2075 -82.9997 340° North 383 441 36,000  Level Cleveland Center
03:52PM 42.3067 -83.0511 339° North 383 441 36,000  Level Cleveland Center
03:53PM 42.4056 -83.0972 341° North 383 441 36,000  Level Cleveland Center
03:54PM 42.5044 -83.1517 338° Northwest 383 441 36,000  Level Cleveland Center
03:55PM 42.6033 -83.2008 340° North 383 441 36,000  Level Cleveland Center
03:56PM 42.7022 -83.2503 340° North 383 441 36,000  Level Cleveland Center
03:57PM 42.8011 -83.3025 339° North 383 441 36,000  Level Cleveland Center
03:58PM 42.8981 -83.3522 339° North 378 435 36,000  Level Cleveland Center
03:59PM 42.9947 -83.4047 338° Northwest 378 435 36,000  Level Cleveland Center
04:00PM 43.0894 -83.4517 340° North 373 429 36,000  Level Cleveland Center
04:01PM 43.1881 -83.5047 339° North 368 423 36,000  Level Cleveland Center
04:02PM 43.2767 -83.5489 340° North 368 423 36,000  Level Cleveland Center
04:04PM 43.4597 -83.6439 339° North 378 435 36,000  Level Minneapolis Center
04:05PM 43.5581 -83.6936 340° North 377 434 36,000  Level Minneapolis Center
04:06PM 43.6547 -83.7461 339° North 376 433 36,000  Level Minneapolis Center
04:07PM 43.7528 -83.7983 339° North 378 435 36,000 -840 Level Minneapolis Center
04:08PM 43.8672 -83.8581 339° North 372 428 34,300 -1,800 Descending Minneapolis Center
04:09PM 43.9650 -83.9103 339° North 368 423 32,300 -1,620 Descending Minneapolis Center
04:10PM 44.0614 -83.9625 339° North 371 427 31,000 -1,500 Descending Minneapolis Center
04:11PM 44.1594 -84.0156 339° North 377 434 29,300 -1,800 Descending Minneapolis Center
04:12PM 44.2606 -84.0694 339° North 387 445 27,400 -1,860 Descending Minneapolis Center
04:13PM 44.3608 -84.1239 339° North 389 448 25,500 -2,040 Descending Minneapolis Center
04:14PM 44.4800 -84.1881 339° North 384 442 23,200 -2,040 Descending Minneapolis Center
04:15PM 44.5756 -84.2400 339° North 376 433 21,300 -1,920 Descending Minneapolis Center
04:16PM 44.6700 -84.2919 339° North 369 425 19,300 -1,800 Descending Minneapolis Center
04:18PM 44.7664 -84.3475 338° Northwest 363 418 17,600 -1,860 Descending Minneapolis Center
04:19PM 44.8658 -84.4025 339° North 359 413 15,500 -1,980 Descending Minneapolis Center
04:20PM 44.9583 -84.4539 339° North 360 414 13,600 -2,040 Descending Minneapolis Center
04:21PM 45.0536 -84.5069 339° North 345 397 11,400 -1,860 Descending Minneapolis Center
04:22PM 45.1306 -84.5494 339° North 281 323 9,800 -1,500 Descending Minneapolis Center
04:23PM 45.2006 -84.5894 338° Northwest 275 316 8,400 -1,260 Descending Minneapolis Center
04:24PM 45.2794 -84.6331 339° North 282 325 7,200 -1,260 Descending Minneapolis Center
04:25PM 45.3500 -84.6722 339° North 277 319 5,800 -1,920 Descending Minneapolis Center
04:26PM 45.4278 -84.6847 354° North 264 304 3,300 -2,460 Descending Minneapolis Center
04:28PM 45.5667 -84.7833 347° North  Level FlightAware Approximate
04:35PM 45.5709 -84.7967 347° North  Level Estimated
04:36PM 45.5709 -84.7967 347° North  Level Estimated